sensor_id;sensor_type;location;lat;lon;timestamp;pressure;altitude;pressure_sealevel;temperature
73894;BMP280;62699;50.534;12.784;2024-02-21T00:03:43;96944.13;;;5.62
73894;BMP280;62699;50.534;12.784;2024-02-21T00:08:43;96935.66;;;5.55
73894;BMP280;62699;50.534;12.784;2024-02-21T00:13:43;96931.03;;;5.46
73894;BMP280;62699;50.534;12.784;2024-02-21T00:18:44;96926.41;;;5.37
73894;BMP280;62699;50.534;12.784;2024-02-21T00:23:45;96924.13;;;5.27
73894;BMP280;62699;50.534;12.784;2024-02-21T00:28:50;96930.78;;;5.22
73894;BMP280;62699;50.534;12.784;2024-02-21T00:33:50;96914.38;;;5.33
73894;BMP280;62699;50.534;12.784;2024-02-21T00:38:50;96914.50;;;5.29
73894;BMP280;62699;50.534;12.784;2024-02-21T00:43:51;96907.22;;;5.30
73894;BMP280;62699;50.534;12.784;2024-02-21T00:48:51;96902.50;;;5.34
73894;BMP280;62699;50.534;12.784;2024-02-21T00:53:51;96901.00;;;5.24
73894;BMP280;62699;50.534;12.784;2024-02-21T00:58:52;96890.81;;;5.10
73894;BMP280;62699;50.534;12.784;2024-02-21T01:03:52;96881.94;;;5.03
73894;BMP280;62699;50.534;12.784;2024-02-21T01:08:53;96881.94;;;5.13
73894;BMP280;62699;50.534;12.784;2024-02-21T01:13:57;96875.72;;;5.07
73894;BMP280;62699;50.534;12.784;2024-02-21T01:18:57;96859.47;;;5.23
73894;BMP280;62699;50.534;12.784;2024-02-21T01:23:58;96852.09;;;5.36
73894;BMP280;62699;50.534;12.784;2024-02-21T01:28:58;96846.72;;;5.27
73894;BMP280;62699;50.534;12.784;2024-02-21T01:33:58;96856.75;;;5.14
73894;BMP280;62699;50.534;12.784;2024-02-21T01:38:59;96851.97;;;5.09
73894;BMP280;62699;50.534;12.784;2024-02-21T01:44:00;96837.75;;;5.02
73894;BMP280;62699;50.534;12.784;2024-02-21T01:49:00;96821.66;;;4.84
73894;BMP280;62699;50.534;12.784;2024-02-21T01:54:01;96814.03;;;4.74
73894;BMP280;62699;50.534;12.784;2024-02-21T01:59:01;96803.47;;;4.61
73894;BMP280;62699;50.534;12.784;2024-02-21T02:04:01;96795.44;;;4.52
73894;BMP280;62699;50.534;12.784;2024-02-21T02:09:02;96800.47;;;4.50
73894;BMP280;62699;50.534;12.784;2024-02-21T02:14:02;96811.56;;;4.48
73894;BMP280;62699;50.534;12.784;2024-02-21T02:19:03;96805.19;;;4.46
73894;BMP280;62699;50.534;12.784;2024-02-21T02:24:04;96798.78;;;4.43
73894;BMP280;62699;50.534;12.784;2024-02-21T02:29:05;96794.22;;;4.44
73894;BMP280;62699;50.534;12.784;2024-02-21T02:34:05;96798.69;;;4.47
73894;BMP280;62699;50.534;12.784;2024-02-21T02:39:05;96780.13;;;4.43
73894;BMP280;62699;50.534;12.784;2024-02-21T02:44:06;96772.88;;;4.44
73894;BMP280;62699;50.534;12.784;2024-02-21T02:49:07;96772.88;;;4.44
73894;BMP280;62699;50.534;12.784;2024-02-21T02:54:07;96764.88;;;4.44
73894;BMP280;62699;50.534;12.784;2024-02-21T02:59:07;96753.91;;;4.42
73894;BMP280;62699;50.534;12.784;2024-02-21T03:04:08;96754.47;;;4.37
73894;BMP280;62699;50.534;12.784;2024-02-21T03:09:08;96752.28;;;4.35
73894;BMP280;62699;50.534;12.784;2024-02-21T03:14:08;96753.44;;;4.34
73894;BMP280;62699;50.534;12.784;2024-02-21T03:19:09;96748.56;;;4.33
73894;BMP280;62699;50.534;12.784;2024-02-21T03:24:09;96743.75;;;4.28
73894;BMP280;62699;50.534;12.784;2024-02-21T03:29:10;96741.09;;;4.28
73894;BMP280;62699;50.534;12.784;2024-02-21T03:34:11;96741.09;;;4.28
73894;BMP280;62699;50.534;12.784;2024-02-21T03:39:11;96742.47;;;4.32
73894;BMP280;62699;50.534;12.784;2024-02-21T03:44:11;96737.56;;;4.31
73894;BMP280;62699;50.534;12.784;2024-02-21T03:49:12;96719.47;;;4.56
73894;BMP280;62699;50.534;12.784;2024-02-21T03:54:12;96719.75;;;4.58
73894;BMP280;62699;50.534;12.784;2024-02-21T03:59:13;96725.09;;;4.58
73894;BMP280;62699;50.534;12.784;2024-02-21T04:04:13;96735.63;;;4.62
73894;BMP280;62699;50.534;12.784;2024-02-21T04:09:13;96734.34;;;4.67
73894;BMP280;62699;50.534;12.784;2024-02-21T04:14:14;96744.53;;;4.68
73894;BMP280;62699;50.534;12.784;2024-02-21T04:19:14;96734.75;;;4.65
73894;BMP280;62699;50.534;12.784;2024-02-21T04:24:14;96735.34;;;4.69
73894;BMP280;62699;50.534;12.784;2024-02-21T04:29:14;96734.63;;;4.69
73894;BMP280;62699;50.534;12.784;2024-02-21T04:34:14;96726.94;;;4.71
73894;BMP280;62699;50.534;12.784;2024-02-21T04:39:15;96723.88;;;4.90
73894;BMP280;62699;50.534;12.784;2024-02-21T04:44:15;96706.25;;;5.02
73894;BMP280;62699;50.534;12.784;2024-02-21T04:49:16;96696.31;;;5.12
73894;BMP280;62699;50.534;12.784;2024-02-21T04:54:16;96698.25;;;5.29
73894;BMP280;62699;50.534;12.784;2024-02-21T04:59:16;96695.31;;;5.27
73894;BMP280;62699;50.534;12.784;2024-02-21T05:04:17;96698.88;;;5.24
73894;BMP280;62699;50.534;12.784;2024-02-21T05:09:17;96696.31;;;5.30
73894;BMP280;62699;50.534;12.784;2024-02-21T05:14:17;96693.38;;;5.28
73894;BMP280;62699;50.534;12.784;2024-02-21T05:19:17;96698.56;;;5.31
73894;BMP280;62699;50.534;12.784;2024-02-21T05:24:18;96684.34;;;5.25
73894;BMP280;62699;50.534;12.784;2024-02-21T05:29:18;96685.22;;;5.22
73894;BMP280;62699;50.534;12.784;2024-02-21T05:34:19;96683.00;;;5.21
73894;BMP280;62699;50.534;12.784;2024-02-21T05:39:20;96677.50;;;5.15
73894;BMP280;62699;50.534;12.784;2024-02-21T05:44:22;96664.00;;;5.10
73894;BMP280;62699;50.534;12.784;2024-02-21T05:49:23;96669.63;;;5.12
73894;BMP280;62699;50.534;12.784;2024-02-21T05:54:23;96662.25;;;5.16
73894;BMP280;62699;50.534;12.784;2024-02-21T05:59:24;96650.81;;;5.15
73894;BMP280;62699;50.534;12.784;2024-02-21T06:04:24;96653.34;;;5.19
73894;BMP280;62699;50.534;12.784;2024-02-21T06:09:24;96651.88;;;5.18
73894;BMP280;62699;50.534;12.784;2024-02-21T06:14:25;96663.13;;;5.22
73894;BMP280;62699;50.534;12.784;2024-02-21T06:19:25;96647.09;;;5.22
73894;BMP280;62699;50.534;12.784;2024-02-21T06:24:25;96637.34;;;5.19
73894;BMP280;62699;50.534;12.784;2024-02-21T06:29:26;96620.09;;;5.11
73894;BMP280;62699;50.534;12.784;2024-02-21T06:34:26;96628.56;;;5.09
73894;BMP280;62699;50.534;12.784;2024-02-21T06:39:26;96626.38;;;5.08
73894;BMP280;62699;50.534;12.784;2024-02-21T06:44:28;96622.66;;;5.05
73894;BMP280;62699;50.534;12.784;2024-02-21T06:49:29;96625.78;;;5.03
73894;BMP280;62699;50.534;12.784;2024-02-21T06:54:29;96618.06;;;5.06
73894;BMP280;62699;50.534;12.784;2024-02-21T06:59:29;96610.38;;;5.08
73894;BMP280;62699;50.534;12.784;2024-02-21T07:04:30;96597.28;;;5.10
73894;BMP280;62699;50.534;12.784;2024-02-21T07:09:30;96602.03;;;5.24
73894;BMP280;62699;50.534;12.784;2024-02-21T07:14:32;96600.78;;;5.52
73894;BMP280;62699;50.534;12.784;2024-02-21T07:19:33;96605.47;;;5.84
73894;BMP280;62699;50.534;12.784;2024-02-21T07:24:35;96609.56;;;6.75
73894;BMP280;62699;50.534;12.784;2024-02-21T07:29:35;96592.75;;;8.88
73894;BMP280;62699;50.534;12.784;2024-02-21T07:34:35;96590.44;;;9.27
73894;BMP280;62699;50.534;12.784;2024-02-21T07:39:36;96595.00;;;8.69
73894;BMP280;62699;50.534;12.784;2024-02-21T07:44:37;96606.72;;;8.71
73894;BMP280;62699;50.534;12.784;2024-02-21T07:49:43;96616.88;;;8.42
73894;BMP280;62699;50.534;12.784;2024-02-21T07:54:44;96621.34;;;7.95
73894;BMP280;62699;50.534;12.784;2024-02-21T07:59:44;96631.47;;;7.71
73894;BMP280;62699;50.534;12.784;2024-02-21T08:04:45;96626.72;;;7.66
73894;BMP280;62699;50.534;12.784;2024-02-21T08:09:45;96633.78;;;7.63
73894;BMP280;62699;50.534;12.784;2024-02-21T08:14:45;96623.69;;;7.58
73894;BMP280;62699;50.534;12.784;2024-02-21T08:19:46;96619.53;;;7.86
73894;BMP280;62699;50.534;12.784;2024-02-21T08:24:46;96584.19;;;8.03
73894;BMP280;62699;50.534;12.784;2024-02-21T08:29:46;96554.34;;;8.35
73894;BMP280;62699;50.534;12.784;2024-02-21T08:34:46;96547.94;;;10.86
73894;BMP280;62699;50.534;12.784;2024-02-21T08:39:47;96546.00;;;12.11
73894;BMP280;62699;50.534;12.784;2024-02-21T08:44:47;96557.50;;;11.15
73894;BMP280;62699;50.534;12.784;2024-02-21T08:49:47;96564.97;;;12.57
73894;BMP280;62699;50.534;12.784;2024-02-21T08:54:48;96564.59;;;12.72
73894;BMP280;62699;50.534;12.784;2024-02-21T08:59:48;96580.28;;;11.47
73894;BMP280;62699;50.534;12.784;2024-02-21T09:04:48;96573.16;;;10.88
73894;BMP280;62699;50.534;12.784;2024-02-21T09:09:49;96576.22;;;10.42
73894;BMP280;62699;50.534;12.784;2024-02-21T09:14:49;96575.72;;;10.38
73894;BMP280;62699;50.534;12.784;2024-02-21T09:19:50;96575.69;;;10.33
73894;BMP280;62699;50.534;12.784;2024-02-21T09:24:50;96583.75;;;9.48
73894;BMP280;62699;50.534;12.784;2024-02-21T09:29:51;96570.31;;;9.16
73894;BMP280;62699;50.534;12.784;2024-02-21T09:34:51;96571.69;;;9.38
73894;BMP280;62699;50.534;12.784;2024-02-21T09:39:52;96578.75;;;9.66
73894;BMP280;62699;50.534;12.784;2024-02-21T09:44:53;96574.91;;;9.42
73894;BMP280;62699;50.534;12.784;2024-02-21T09:49:54;96587.53;;;9.61
73894;BMP280;62699;50.534;12.784;2024-02-21T09:54:54;96571.50;;;9.47
73894;BMP280;62699;50.534;12.784;2024-02-21T09:59:55;96577.69;;;9.21
73894;BMP280;62699;50.534;12.784;2024-02-21T10:04:56;96574.25;;;9.21
73894;BMP280;62699;50.534;12.784;2024-02-21T10:10:03;96571.91;;;9.03
73894;BMP280;62699;50.534;12.784;2024-02-21T10:15:05;96560.19;;;9.32
73894;BMP280;62699;50.534;12.784;2024-02-21T10:20:07;96557.91;;;9.56
73894;BMP280;62699;50.534;12.784;2024-02-21T10:25:12;96567.34;;;9.40
73894;BMP280;62699;50.534;12.784;2024-02-21T10:30:14;96557.31;;;9.41
73894;BMP280;62699;50.534;12.784;2024-02-21T10:35:25;96551.16;;;10.14
73894;BMP280;62699;50.534;12.784;2024-02-21T10:40:27;96544.91;;;10.45
73894;BMP280;62699;50.534;12.784;2024-02-21T10:45:39;96533.22;;;10.65
73894;BMP280;62699;50.534;12.784;2024-02-21T10:50:53;96523.13;;;10.43
73894;BMP280;62699;50.534;12.784;2024-02-21T10:56:16;96513.16;;;10.66
73894;BMP280;62699;50.534;12.784;2024-02-21T11:01:19;96508.47;;;10.55
73894;BMP280;62699;50.534;12.784;2024-02-21T11:06:20;96491.84;;;10.84
73894;BMP280;62699;50.534;12.784;2024-02-21T11:11:23;96483.75;;;10.90
73894;BMP280;62699;50.534;12.784;2024-02-21T11:16:24;96479.59;;;11.06
73894;BMP280;62699;50.534;12.784;2024-02-21T11:21:33;96473.97;;;11.09
73894;BMP280;62699;50.534;12.784;2024-02-21T11:26:37;96462.69;;;11.16
73894;BMP280;62699;50.534;12.784;2024-02-21T11:31:44;96451.44;;;10.84
73894;BMP280;62699;50.534;12.784;2024-02-21T11:36:55;96435.75;;;10.99
73894;BMP280;62699;50.534;12.784;2024-02-21T11:42:06;96422.53;;;11.13
73894;BMP280;62699;50.534;12.784;2024-02-21T11:47:08;96409.91;;;11.54
73894;BMP280;62699;50.534;12.784;2024-02-21T11:52:08;96397.81;;;11.72
73894;BMP280;62699;50.534;12.784;2024-02-21T11:57:10;96403.41;;;11.85
73894;BMP280;62699;50.534;12.784;2024-02-21T12:02:11;96404.53;;;12.01
73894;BMP280;62699;50.534;12.784;2024-02-21T12:07:12;96381.56;;;11.83
73894;BMP280;62699;50.534;12.784;2024-02-21T12:12:12;96385.91;;;11.97
73894;BMP280;62699;50.534;12.784;2024-02-21T12:17:12;96359.06;;;12.16
73894;BMP280;62699;50.534;12.784;2024-02-21T12:22:18;96344.66;;;12.32
73894;BMP280;62699;50.534;12.784;2024-02-21T12:27:18;96338.03;;;12.09
73894;BMP280;62699;50.534;12.784;2024-02-21T12:32:18;96319.88;;;12.04
73894;BMP280;62699;50.534;12.784;2024-02-21T12:37:19;96320.72;;;12.23
73894;BMP280;62699;50.534;12.784;2024-02-21T12:42:20;96314.38;;;12.45
73894;BMP280;62699;50.534;12.784;2024-02-21T12:47:20;96301.38;;;12.19
73894;BMP280;62699;50.534;12.784;2024-02-21T12:52:23;96299.97;;;12.61
73894;BMP280;62699;50.534;12.784;2024-02-21T12:57:24;96290.44;;;12.35
73894;BMP280;62699;50.534;12.784;2024-02-21T13:02:24;96282.88;;;12.53
73894;BMP280;62699;50.534;12.784;2024-02-21T13:07:25;96270.22;;;12.66
73894;BMP280;62699;50.534;12.784;2024-02-21T13:12:25;96269.88;;;12.27
73894;BMP280;62699;50.534;12.784;2024-02-21T13:17:27;96252.00;;;11.64
73894;BMP280;62699;50.534;12.784;2024-02-21T13:22:30;96246.44;;;11.51
73894;BMP280;62699;50.534;12.784;2024-02-21T13:27:30;96231.16;;;11.65
73894;BMP280;62699;50.534;12.784;2024-02-21T13:32:32;96224.56;;;11.60
73894;BMP280;62699;50.534;12.784;2024-02-21T13:37:32;96216.53;;;11.55
73894;BMP280;62699;50.534;12.784;2024-02-21T13:42:32;96216.66;;;11.68
73894;BMP280;62699;50.534;12.784;2024-02-21T13:47:33;96205.91;;;11.62
73894;BMP280;62699;50.534;12.784;2024-02-21T13:52:33;96194.97;;;11.49
73894;BMP280;62699;50.534;12.784;2024-02-21T13:57:37;96197.78;;;11.38
73894;BMP280;62699;50.534;12.784;2024-02-21T14:02:37;96198.78;;;11.35
73894;BMP280;62699;50.534;12.784;2024-02-21T14:07:40;96197.59;;;11.25
73894;BMP280;62699;50.534;12.784;2024-02-21T14:12:40;96192.69;;;11.23
73894;BMP280;62699;50.534;12.784;2024-02-21T14:17:40;96185.66;;;11.15
73894;BMP280;62699;50.534;12.784;2024-02-21T14:22:41;96188.34;;;11.15
73894;BMP280;62699;50.534;12.784;2024-02-21T14:27:41;96176.66;;;11.01
73894;BMP280;62699;50.534;12.784;2024-02-21T14:32:44;96184.50;;;10.99
73894;BMP280;62699;50.534;12.784;2024-02-21T14:37:45;96179.44;;;10.84
73894;BMP280;62699;50.534;12.784;2024-02-21T14:42:46;96184.09;;;10.84
73894;BMP280;62699;50.534;12.784;2024-02-21T14:47:46;96192.44;;;10.80
73894;BMP280;62699;50.534;12.784;2024-02-21T14:52:46;96180.75;;;10.67
73894;BMP280;62699;50.534;12.784;2024-02-21T14:57:47;96174.19;;;10.51
73894;BMP280;62699;50.534;12.784;2024-02-21T15:02:47;96166.63;;;10.44
73894;BMP280;62699;50.534;12.784;2024-02-21T15:07:47;96169.31;;;10.44
73894;BMP280;62699;50.534;12.784;2024-02-21T15:12:47;96165.91;;;10.38
73894;BMP280;62699;50.534;12.784;2024-02-21T15:17:48;96153.94;;;10.28
73894;BMP280;62699;50.534;12.784;2024-02-21T15:22:48;96146.91;;;10.14
73894;BMP280;62699;50.534;12.784;2024-02-21T15:27:49;96134.69;;;10.07
73894;BMP280;62699;50.534;12.784;2024-02-21T15:32:50;96121.00;;;9.99
73894;BMP280;62699;50.534;12.784;2024-02-21T15:37:50;96122.25;;;9.93
73894;BMP280;62699;50.534;12.784;2024-02-21T15:42:50;96108.59;;;9.74
73894;BMP280;62699;50.534;12.784;2024-02-21T15:47:51;96098.56;;;9.69
73894;BMP280;62699;50.534;12.784;2024-02-21T15:52:54;96101.25;;;9.58
73894;BMP280;62699;50.534;12.784;2024-02-21T15:57:55;96092.97;;;9.50
73894;BMP280;62699;50.534;12.784;2024-02-21T16:02:56;96085.16;;;9.30
73894;BMP280;62699;50.534;12.784;2024-02-21T16:07:57;96074.16;;;9.11
73894;BMP280;62699;50.534;12.784;2024-02-21T16:12:57;96056.31;;;8.92
73894;BMP280;62699;50.534;12.784;2024-02-21T16:17:57;96053.34;;;8.73
73894;BMP280;62699;50.534;12.784;2024-02-21T16:23:01;96036.00;;;8.57
73894;BMP280;62699;50.534;12.784;2024-02-21T16:28:03;96033.06;;;8.50
73894;BMP280;62699;50.534;12.784;2024-02-21T16:33:04;96023.75;;;8.45
73894;BMP280;62699;50.534;12.784;2024-02-21T16:38:04;96024.25;;;8.44
73894;BMP280;62699;50.534;12.784;2024-02-21T16:43:05;96014.47;;;8.41
73894;BMP280;62699;50.534;12.784;2024-02-21T16:48:06;96019.84;;;8.41
73894;BMP280;62699;50.534;12.784;2024-02-21T16:53:06;96019.84;;;8.29
73894;BMP280;62699;50.534;12.784;2024-02-21T16:58:08;96017.38;;;8.31
73894;BMP280;62699;50.534;12.784;2024-02-21T17:03:12;96020.53;;;8.19
73894;BMP280;62699;50.534;12.784;2024-02-21T17:08:20;96006.09;;;8.11
73894;BMP280;62699;50.534;12.784;2024-02-21T17:13:21;96016.13;;;8.16
73894;BMP280;62699;50.534;12.784;2024-02-21T17:18:21;96017.28;;;8.09
73894;BMP280;62699;50.534;12.784;2024-02-21T17:23:23;96001.72;;;8.13
73894;BMP280;62699;50.534;12.784;2024-02-21T17:28:24;95999.25;;;8.04
73894;BMP280;62699;50.534;12.784;2024-02-21T17:33:24;95995.28;;;7.94
73894;BMP280;62699;50.534;12.784;2024-02-21T17:38:24;95981.53;;;7.70
73894;BMP280;62699;50.534;12.784;2024-02-21T17:43:25;95974.28;;;7.76
73894;BMP280;62699;50.534;12.784;2024-02-21T17:48:29;95962.69;;;7.53
73894;BMP280;62699;50.534;12.784;2024-02-21T17:53:29;95964.41;;;7.50
73894;BMP280;62699;50.534;12.784;2024-02-21T17:58:30;95960.25;;;7.49
73894;BMP280;62699;50.534;12.784;2024-02-21T18:03:30;95939.56;;;7.56
73894;BMP280;62699;50.534;12.784;2024-02-21T18:08:30;95929.00;;;7.89
73894;BMP280;62699;50.534;12.784;2024-02-21T18:13:31;95920.00;;;7.92
73894;BMP280;62699;50.534;12.784;2024-02-21T18:18:31;95908.31;;;7.95
73894;BMP280;62699;50.534;12.784;2024-02-21T18:23:31;95897.63;;;8.06
73894;BMP280;62699;50.534;12.784;2024-02-21T18:28:32;95891.56;;;8.22
73894;BMP280;62699;50.534;12.784;2024-02-21T18:33:32;95890.13;;;8.32
73894;BMP280;62699;50.534;12.784;2024-02-21T18:38:33;95877.47;;;8.39
73894;BMP280;62699;50.534;12.784;2024-02-21T18:43:34;95878.44;;;8.47
73894;BMP280;62699;50.534;12.784;2024-02-21T18:48:34;95867.47;;;8.50
73894;BMP280;62699;50.534;12.784;2024-02-21T18:53:35;95869.66;;;8.46
73894;BMP280;62699;50.534;12.784;2024-02-21T18:58:35;95867.72;;;8.63
73894;BMP280;62699;50.534;12.784;2024-02-21T19:03:36;95849.41;;;8.73
73894;BMP280;62699;50.534;12.784;2024-02-21T19:08:36;95833.78;;;8.71
73894;BMP280;62699;50.534;12.784;2024-02-21T19:13:36;95839.63;;;8.75
73894;BMP280;62699;50.534;12.784;2024-02-21T19:18:37;95836.47;;;8.77
73894;BMP280;62699;50.534;12.784;2024-02-21T19:23:37;95848.19;;;8.74
73894;BMP280;62699;50.534;12.784;2024-02-21T19:28:38;95844.78;;;8.79
73894;BMP280;62699;50.534;12.784;2024-02-21T19:33:38;95836.72;;;8.73
73894;BMP280;62699;50.534;12.784;2024-02-21T19:38:38;95824.78;;;8.69
73894;BMP280;62699;50.534;12.784;2024-02-21T19:43:39;95821.59;;;8.70
73894;BMP280;62699;50.534;12.784;2024-02-21T19:48:39;95809.88;;;8.68
73894;BMP280;62699;50.534;12.784;2024-02-21T19:53:41;95811.34;;;8.69
73894;BMP280;62699;50.534;12.784;2024-02-21T19:58:41;95792.56;;;8.69
73894;BMP280;62699;50.534;12.784;2024-02-21T20:03:41;95789.63;;;8.67
73894;BMP280;62699;50.534;12.784;2024-02-21T20:08:43;95788.16;;;8.66
73894;BMP280;62699;50.534;12.784;2024-02-21T20:13:43;95779.66;;;8.67
73894;BMP280;62699;50.534;12.784;2024-02-21T20:18:43;95783.28;;;8.64
73894;BMP280;62699;50.534;12.784;2024-02-21T20:23:44;95763.06;;;8.63
73894;BMP280;62699;50.534;12.784;2024-02-21T20:28:44;95758.91;;;8.62
73894;BMP280;62699;50.534;12.784;2024-02-21T20:33:48;95747.72;;;8.58
73894;BMP280;62699;50.534;12.784;2024-02-21T20:38:56;95742.84;;;8.57
73894;BMP280;62699;50.534;12.784;2024-02-21T20:43:56;95738.47;;;8.54
73894;BMP280;62699;50.534;12.784;2024-02-21T20:48:57;95714.53;;;8.56
73894;BMP280;62699;50.534;12.784;2024-02-21T20:53:57;95742.84;;;8.57
73894;BMP280;62699;50.534;12.784;2024-02-21T20:58:57;95726.50;;;8.60
73894;BMP280;62699;50.534;12.784;2024-02-21T21:03:58;95714.03;;;8.63
73894;BMP280;62699;50.534;12.784;2024-02-21T21:08:58;95716.25;;;8.59
73894;BMP280;62699;50.534;12.784;2024-02-21T21:13:58;95728.66;;;8.62
73894;BMP280;62699;50.534;12.784;2024-02-21T21:18:59;95737.22;;;8.60
73894;BMP280;62699;50.534;12.784;2024-02-21T21:23:59;95736.25;;;8.58
73894;BMP280;62699;50.534;12.784;2024-02-21T21:28:59;95736.00;;;8.56
73894;BMP280;62699;50.534;12.784;2024-02-21T21:33:59;95733.09;;;8.54
73894;BMP280;62699;50.534;12.784;2024-02-21T21:39:00;95735.03;;;8.59
73894;BMP280;62699;50.534;12.784;2024-02-21T21:44:00;95729.41;;;8.57
73894;BMP280;62699;50.534;12.784;2024-02-21T21:49:00;95722.84;;;8.58
73894;BMP280;62699;50.534;12.784;2024-02-21T21:54:01;95732.84;;;8.57
73894;BMP280;62699;50.534;12.784;2024-02-21T21:59:01;95702.09;;;8.58
73894;BMP280;62699;50.534;12.784;2024-02-21T22:04:04;95700.44;;;8.50
73894;BMP280;62699;50.534;12.784;2024-02-21T22:09:04;95685.78;;;8.51
73894;BMP280;62699;50.534;12.784;2024-02-21T22:14:06;95688.22;;;8.60
73894;BMP280;62699;50.534;12.784;2024-02-21T22:19:08;95669.66;;;8.56
73894;BMP280;62699;50.534;12.784;2024-02-21T22:24:08;95656.75;;;8.60
73894;BMP280;62699;50.534;12.784;2024-02-21T22:29:10;95648.66;;;8.66
73894;BMP280;62699;50.534;12.784;2024-02-21T22:34:14;95651.38;;;8.55
73894;BMP280;62699;50.534;12.784;2024-02-21T22:39:15;95640.69;;;8.49
73894;BMP280;62699;50.534;12.784;2024-02-21T22:44:15;95629.25;;;8.38
73894;BMP280;62699;50.534;12.784;2024-02-21T22:49:16;95616.88;;;8.29
73894;BMP280;62699;50.534;12.784;2024-02-21T22:54:35;95604.16;;;8.24
73894;BMP280;62699;50.534;12.784;2024-02-21T22:59:35;95604.44;;;8.20
73894;BMP280;62699;50.534;12.784;2024-02-21T23:04:36;95585.69;;;8.15
73894;BMP280;62699;50.534;12.784;2024-02-21T23:09:55;95566.94;;;8.09
73894;BMP280;62699;50.534;12.784;2024-02-21T23:14:55;95556.50;;;8.00
73894;BMP280;62699;50.534;12.784;2024-02-21T23:19:55;95534.06;;;8.03
73894;BMP280;62699;50.534;12.784;2024-02-21T23:24:55;95521.44;;;7.98
73894;BMP280;62699;50.534;12.784;2024-02-21T23:29:56;95514.13;;;7.93
73894;BMP280;62699;50.534;12.784;2024-02-21T23:34:56;95505.59;;;7.94
73894;BMP280;62699;50.534;12.784;2024-02-21T23:39:58;95496.31;;;8.01
73894;BMP280;62699;50.534;12.784;2024-02-21T23:44:59;95485.88;;;7.92
73894;BMP280;62699;50.534;12.784;2024-02-21T23:50:00;95476.34;;;8.02
73894;BMP280;62699;50.534;12.784;2024-02-21T23:55:03;95461.00;;;7.97
